sensor_id;sensor_type;location;lat;lon;timestamp;P1;durP1;ratioP1;P2;durP2;ratioP2
74894;SDS011;63447;49.446;8.666;2024-02-26T00:00:47;2.90;;;0.83;;
74894;SDS011;63447;49.446;8.666;2024-02-26T00:03:12;3.53;;;0.70;;
74894;SDS011;63447;49.446;8.666;2024-02-26T00:05:37;3.27;;;1.00;;
74894;SDS011;63447;49.446;8.666;2024-02-26T00:08:04;3.70;;;1.05;;
74894;SDS011;63447;49.446;8.666;2024-02-26T00:10:29;2.53;;;0.70;;
74894;SDS011;63447;49.446;8.666;2024-02-26T00:12:57;2.70;;;0.70;;
74894;SDS011;63447;49.446;8.666;2024-02-26T00:15:29;2.63;;;0.70;;
74894;SDS011;63447;49.446;8.666;2024-02-26T00:17:54;2.72;;;0.75;;
74894;SDS011;63447;49.446;8.666;2024-02-26T00:20:19;2.90;;;0.80;;
74894;SDS011;63447;49.446;8.666;2024-02-26T00:22:45;2.80;;;0.90;;
74894;SDS011;63447;49.446;8.666;2024-02-26T00:25:15;3.20;;;0.82;;
74894;SDS011;63447;49.446;8.666;2024-02-26T00:27:43;3.47;;;0.80;;
74894;SDS011;63447;49.446;8.666;2024-02-26T00:30:09;2.95;;;0.82;;
74894;SDS011;63447;49.446;8.666;2024-02-26T00:32:35;3.20;;;0.90;;
74894;SDS011;63447;49.446;8.666;2024-02-26T00:35:00;3.37;;;1.00;;
74894;SDS011;63447;49.446;8.666;2024-02-26T00:37:26;3.33;;;1.02;;
74894;SDS011;63447;49.446;8.666;2024-02-26T00:39:56;3.97;;;1.00;;
74894;SDS011;63447;49.446;8.666;2024-02-26T00:42:22;3.10;;;1.00;;
74894;SDS011;63447;49.446;8.666;2024-02-26T00:44:47;3.08;;;0.90;;
74894;SDS011;63447;49.446;8.666;2024-02-26T00:47:15;3.05;;;1.08;;
74894;SDS011;63447;49.446;8.666;2024-02-26T00:49:42;3.30;;;1.00;;
74894;SDS011;63447;49.446;8.666;2024-02-26T00:52:10;3.35;;;1.10;;
74894;SDS011;63447;49.446;8.666;2024-02-26T00:54:35;3.95;;;1.13;;
74894;SDS011;63447;49.446;8.666;2024-02-26T00:57:00;3.73;;;1.20;;
74894;SDS011;63447;49.446;8.666;2024-02-26T00:59:26;4.00;;;1.13;;
74894;SDS011;63447;49.446;8.666;2024-02-26T01:01:53;3.63;;;1.20;;
74894;SDS011;63447;49.446;8.666;2024-02-26T01:04:23;3.30;;;1.10;;
74894;SDS011;63447;49.446;8.666;2024-02-26T01:06:48;3.20;;;1.00;;
74894;SDS011;63447;49.446;8.666;2024-02-26T01:09:14;3.73;;;1.20;;
74894;SDS011;63447;49.446;8.666;2024-02-26T01:11:43;3.72;;;1.17;;
74894;SDS011;63447;49.446;8.666;2024-02-26T01:14:08;3.00;;;0.93;;
74894;SDS011;63447;49.446;8.666;2024-02-26T01:16:38;3.30;;;1.20;;
74894;SDS011;63447;49.446;8.666;2024-02-26T01:19:03;3.42;;;0.90;;
74894;SDS011;63447;49.446;8.666;2024-02-26T01:21:28;3.23;;;1.07;;
74894;SDS011;63447;49.446;8.666;2024-02-26T01:23:55;3.75;;;1.23;;
74894;SDS011;63447;49.446;8.666;2024-02-26T01:26:20;3.43;;;1.07;;
74894;SDS011;63447;49.446;8.666;2024-02-26T01:28:46;3.95;;;1.13;;
74894;SDS011;63447;49.446;8.666;2024-02-26T01:31:14;3.95;;;1.40;;
74894;SDS011;63447;49.446;8.666;2024-02-26T01:33:40;3.38;;;1.08;;
74894;SDS011;63447;49.446;8.666;2024-02-26T01:36:09;3.05;;;0.90;;
74894;SDS011;63447;49.446;8.666;2024-02-26T01:38:35;3.40;;;1.00;;
74894;SDS011;63447;49.446;8.666;2024-02-26T01:41:05;3.67;;;1.10;;
74894;SDS011;63447;49.446;8.666;2024-02-26T01:43:31;3.13;;;0.93;;
74894;SDS011;63447;49.446;8.666;2024-02-26T01:45:56;3.27;;;1.10;;
74894;SDS011;63447;49.446;8.666;2024-02-26T01:48:24;3.85;;;1.13;;
74894;SDS011;63447;49.446;8.666;2024-02-26T01:50:50;3.40;;;1.20;;
74894;SDS011;63447;49.446;8.666;2024-02-26T01:53:16;4.13;;;1.02;;
74894;SDS011;63447;49.446;8.666;2024-02-26T01:55:45;3.58;;;1.00;;
74894;SDS011;63447;49.446;8.666;2024-02-26T01:58:14;3.47;;;1.20;;
74894;SDS011;63447;49.446;8.666;2024-02-26T02:00:40;2.50;;;0.85;;
74894;SDS011;63447;49.446;8.666;2024-02-26T02:03:08;3.28;;;1.00;;
74894;SDS011;63447;49.446;8.666;2024-02-26T02:05:33;3.63;;;0.93;;
74894;SDS011;63447;49.446;8.666;2024-02-26T02:08:06;3.35;;;1.00;;
74894;SDS011;63447;49.446;8.666;2024-02-26T02:10:32;3.22;;;0.93;;
74894;SDS011;63447;49.446;8.666;2024-02-26T02:13:00;4.90;;;1.10;;
74894;SDS011;63447;49.446;8.666;2024-02-26T02:15:30;3.20;;;0.93;;
74894;SDS011;63447;49.446;8.666;2024-02-26T02:17:55;3.53;;;1.20;;
74894;SDS011;63447;49.446;8.666;2024-02-26T02:20:33;3.05;;;0.95;;
74894;SDS011;63447;49.446;8.666;2024-02-26T02:23:01;2.88;;;0.95;;
74894;SDS011;63447;49.446;8.666;2024-02-26T02:25:29;3.30;;;0.90;;
74894;SDS011;63447;49.446;8.666;2024-02-26T02:28:02;2.63;;;0.90;;
74894;SDS011;63447;49.446;8.666;2024-02-26T02:30:28;3.15;;;0.90;;
74894;SDS011;63447;49.446;8.666;2024-02-26T02:32:54;3.58;;;0.90;;
74894;SDS011;63447;49.446;8.666;2024-02-26T02:35:23;2.70;;;0.80;;
74894;SDS011;63447;49.446;8.666;2024-02-26T02:37:49;3.23;;;0.80;;
74894;SDS011;63447;49.446;8.666;2024-02-26T02:40:16;3.15;;;0.70;;
74894;SDS011;63447;49.446;8.666;2024-02-26T02:42:43;3.17;;;0.70;;
74894;SDS011;63447;49.446;8.666;2024-02-26T02:45:09;4.43;;;1.13;;
74894;SDS011;63447;49.446;8.666;2024-02-26T02:47:37;3.25;;;0.90;;
74894;SDS011;63447;49.446;8.666;2024-02-26T02:50:03;2.58;;;0.80;;
74894;SDS011;63447;49.446;8.666;2024-02-26T02:52:29;3.83;;;0.93;;
74894;SDS011;63447;49.446;8.666;2024-02-26T02:54:54;2.75;;;0.77;;
74894;SDS011;63447;49.446;8.666;2024-02-26T02:57:20;4.10;;;1.10;;
74894;SDS011;63447;49.446;8.666;2024-02-26T02:59:45;2.70;;;0.80;;
74894;SDS011;63447;49.446;8.666;2024-02-26T03:02:11;2.78;;;0.90;;
74894;SDS011;63447;49.446;8.666;2024-02-26T03:04:41;3.33;;;1.10;;
74894;SDS011;63447;49.446;8.666;2024-02-26T03:07:07;4.03;;;1.00;;
74894;SDS011;63447;49.446;8.666;2024-02-26T03:09:34;3.43;;;0.97;;
74894;SDS011;63447;49.446;8.666;2024-02-26T03:12:04;3.92;;;1.20;;
74894;SDS011;63447;49.446;8.666;2024-02-26T03:14:30;4.13;;;1.10;;
74894;SDS011;63447;49.446;8.666;2024-02-26T03:16:58;3.85;;;1.10;;
74894;SDS011;63447;49.446;8.666;2024-02-26T03:19:23;4.35;;;1.05;;
74894;SDS011;63447;49.446;8.666;2024-02-26T03:21:49;2.95;;;0.98;;
74894;SDS011;63447;49.446;8.666;2024-02-26T03:24:14;3.83;;;0.90;;
74894;SDS011;63447;49.446;8.666;2024-02-26T03:26:40;2.83;;;1.00;;
74894;SDS011;63447;49.446;8.666;2024-02-26T03:29:08;2.30;;;0.73;;
74894;SDS011;63447;49.446;8.666;2024-02-26T03:31:36;2.88;;;0.80;;
74894;SDS011;63447;49.446;8.666;2024-02-26T03:34:03;2.80;;;0.80;;
74894;SDS011;63447;49.446;8.666;2024-02-26T03:36:29;2.90;;;0.73;;
74894;SDS011;63447;49.446;8.666;2024-02-26T03:38:54;3.13;;;0.90;;
74894;SDS011;63447;49.446;8.666;2024-02-26T03:41:21;3.38;;;1.10;;
74894;SDS011;63447;49.446;8.666;2024-02-26T03:43:47;3.77;;;0.97;;
74894;SDS011;63447;49.446;8.666;2024-02-26T03:46:12;2.42;;;0.70;;
74894;SDS011;63447;49.446;8.666;2024-02-26T03:48:39;2.88;;;0.90;;
74894;SDS011;63447;49.446;8.666;2024-02-26T03:51:05;2.65;;;0.70;;
74894;SDS011;63447;49.446;8.666;2024-02-26T03:53:31;2.20;;;0.70;;
74894;SDS011;63447;49.446;8.666;2024-02-26T03:55:58;2.73;;;0.70;;
74894;SDS011;63447;49.446;8.666;2024-02-26T03:58:28;2.55;;;0.80;;
74894;SDS011;63447;49.446;8.666;2024-02-26T04:00:53;3.30;;;1.00;;
74894;SDS011;63447;49.446;8.666;2024-02-26T04:03:21;2.70;;;0.80;;
74894;SDS011;63447;49.446;8.666;2024-02-26T04:05:46;2.60;;;0.70;;
74894;SDS011;63447;49.446;8.666;2024-02-26T04:08:14;3.50;;;0.95;;
74894;SDS011;63447;49.446;8.666;2024-02-26T04:10:39;2.40;;;0.70;;
74894;SDS011;63447;49.446;8.666;2024-02-26T04:13:06;2.70;;;0.70;;
74894;SDS011;63447;49.446;8.666;2024-02-26T04:15:32;2.47;;;0.70;;
74894;SDS011;63447;49.446;8.666;2024-02-26T04:17:57;2.20;;;0.52;;
74894;SDS011;63447;49.446;8.666;2024-02-26T04:20:23;2.67;;;0.70;;
74894;SDS011;63447;49.446;8.666;2024-02-26T04:22:48;2.05;;;0.60;;
74894;SDS011;63447;49.446;8.666;2024-02-26T04:25:14;2.97;;;0.80;;
74894;SDS011;63447;49.446;8.666;2024-02-26T04:27:40;1.20;;;0.40;;
74894;SDS011;63447;49.446;8.666;2024-02-26T04:30:06;2.45;;;0.63;;
74894;SDS011;63447;49.446;8.666;2024-02-26T04:32:32;2.30;;;0.70;;
74894;SDS011;63447;49.446;8.666;2024-02-26T04:34:57;1.88;;;0.50;;
74894;SDS011;63447;49.446;8.666;2024-02-26T04:37:25;1.85;;;0.50;;
74894;SDS011;63447;49.446;8.666;2024-02-26T04:39:55;1.25;;;0.30;;
74894;SDS011;63447;49.446;8.666;2024-02-26T04:42:25;1.45;;;0.45;;
74894;SDS011;63447;49.446;8.666;2024-02-26T04:44:50;1.73;;;0.47;;
74894;SDS011;63447;49.446;8.666;2024-02-26T04:47:18;2.08;;;0.52;;
74894;SDS011;63447;49.446;8.666;2024-02-26T04:49:43;1.70;;;0.43;;
74894;SDS011;63447;49.446;8.666;2024-02-26T04:52:09;1.52;;;0.40;;
74894;SDS011;63447;49.446;8.666;2024-02-26T04:54:34;1.45;;;0.50;;
74894;SDS011;63447;49.446;8.666;2024-02-26T04:57:00;1.48;;;0.50;;
74894;SDS011;63447;49.446;8.666;2024-02-26T04:59:25;1.90;;;0.50;;
74894;SDS011;63447;49.446;8.666;2024-02-26T05:01:55;0.85;;;0.30;;
74894;SDS011;63447;49.446;8.666;2024-02-26T05:04:20;1.67;;;0.50;;
74894;SDS011;63447;49.446;8.666;2024-02-26T05:06:46;1.38;;;0.43;;
74894;SDS011;63447;49.446;8.666;2024-02-26T05:09:11;1.33;;;0.30;;
74894;SDS011;63447;49.446;8.666;2024-02-26T05:11:39;1.27;;;0.40;;
74894;SDS011;63447;49.446;8.666;2024-02-26T05:14:04;1.52;;;0.50;;
74894;SDS011;63447;49.446;8.666;2024-02-26T05:16:29;1.33;;;0.40;;
74894;SDS011;63447;49.446;8.666;2024-02-26T05:18:57;1.50;;;0.30;;
74894;SDS011;63447;49.446;8.666;2024-02-26T05:21:23;1.02;;;0.30;;
74894;SDS011;63447;49.446;8.666;2024-02-26T05:23:48;1.20;;;0.30;;
74894;SDS011;63447;49.446;8.666;2024-02-26T05:26:20;0.88;;;0.20;;
74894;SDS011;63447;49.446;8.666;2024-02-26T05:28:46;0.77;;;0.30;;
74894;SDS011;63447;49.446;8.666;2024-02-26T05:31:15;1.38;;;0.50;;
74894;SDS011;63447;49.446;8.666;2024-02-26T05:33:43;1.02;;;0.45;;
74894;SDS011;63447;49.446;8.666;2024-02-26T05:36:09;1.40;;;0.30;;
74894;SDS011;63447;49.446;8.666;2024-02-26T05:38:34;2.08;;;0.52;;
74894;SDS011;63447;49.446;8.666;2024-02-26T05:41:00;3.40;;;0.50;;
74894;SDS011;63447;49.446;8.666;2024-02-26T05:43:26;2.42;;;0.68;;
74894;SDS011;63447;49.446;8.666;2024-02-26T05:45:54;1.80;;;0.50;;
74894;SDS011;63447;49.446;8.666;2024-02-26T05:48:19;2.60;;;0.60;;
74894;SDS011;63447;49.446;8.666;2024-02-26T05:50:45;2.30;;;0.60;;
74894;SDS011;63447;49.446;8.666;2024-02-26T05:53:11;1.92;;;0.50;;
74894;SDS011;63447;49.446;8.666;2024-02-26T05:55:37;1.60;;;0.45;;
74894;SDS011;63447;49.446;8.666;2024-02-26T05:58:02;2.33;;;0.68;;
74894;SDS011;63447;49.446;8.666;2024-02-26T06:00:28;2.00;;;0.60;;
74894;SDS011;63447;49.446;8.666;2024-02-26T06:02:53;1.77;;;0.50;;
74894;SDS011;63447;49.446;8.666;2024-02-26T06:05:18;3.73;;;0.80;;
74894;SDS011;63447;49.446;8.666;2024-02-26T06:07:46;2.50;;;0.55;;
74894;SDS011;63447;49.446;8.666;2024-02-26T06:10:12;1.20;;;0.35;;
74894;SDS011;63447;49.446;8.666;2024-02-26T06:12:39;1.92;;;0.50;;
74894;SDS011;63447;49.446;8.666;2024-02-26T06:15:05;1.77;;;0.40;;
74894;SDS011;63447;49.446;8.666;2024-02-26T06:17:31;2.10;;;0.55;;
74894;SDS011;63447;49.446;8.666;2024-02-26T06:20:01;2.13;;;0.50;;
74894;SDS011;63447;49.446;8.666;2024-02-26T06:22:29;1.95;;;0.50;;
74894;SDS011;63447;49.446;8.666;2024-02-26T06:24:55;1.55;;;0.50;;
74894;SDS011;63447;49.446;8.666;2024-02-26T06:27:25;1.92;;;0.60;;
74894;SDS011;63447;49.446;8.666;2024-02-26T06:29:53;2.15;;;0.50;;
74894;SDS011;63447;49.446;8.666;2024-02-26T06:32:19;1.67;;;0.45;;
74894;SDS011;63447;49.446;8.666;2024-02-26T06:34:44;2.00;;;0.50;;
74894;SDS011;63447;49.446;8.666;2024-02-26T06:37:09;2.57;;;0.70;;
74894;SDS011;63447;49.446;8.666;2024-02-26T06:39:35;2.65;;;0.60;;
74894;SDS011;63447;49.446;8.666;2024-02-26T06:42:05;2.30;;;0.60;;
74894;SDS011;63447;49.446;8.666;2024-02-26T06:44:31;2.42;;;0.60;;
74894;SDS011;63447;49.446;8.666;2024-02-26T06:46:58;2.15;;;0.50;;
74894;SDS011;63447;49.446;8.666;2024-02-26T06:49:25;2.65;;;0.60;;
74894;SDS011;63447;49.446;8.666;2024-02-26T06:51:52;2.58;;;0.52;;
74894;SDS011;63447;49.446;8.666;2024-02-26T06:54:18;2.47;;;0.73;;
74894;SDS011;63447;49.446;8.666;2024-02-26T06:56:43;1.63;;;0.50;;
74894;SDS011;63447;49.446;8.666;2024-02-26T06:59:11;2.75;;;0.77;;
74894;SDS011;63447;49.446;8.666;2024-02-26T07:01:40;3.15;;;0.80;;
74894;SDS011;63447;49.446;8.666;2024-02-26T07:04:06;2.40;;;0.63;;
74894;SDS011;63447;49.446;8.666;2024-02-26T07:06:32;2.80;;;0.70;;
74894;SDS011;63447;49.446;8.666;2024-02-26T07:08:57;2.35;;;0.65;;
74894;SDS011;63447;49.446;8.666;2024-02-26T07:11:27;2.83;;;0.80;;
74894;SDS011;63447;49.446;8.666;2024-02-26T07:13:53;2.50;;;0.70;;
74894;SDS011;63447;49.446;8.666;2024-02-26T07:16:20;3.38;;;0.70;;
74894;SDS011;63447;49.446;8.666;2024-02-26T07:18:46;3.05;;;0.70;;
74894;SDS011;63447;49.446;8.666;2024-02-26T07:21:11;2.00;;;0.60;;
74894;SDS011;63447;49.446;8.666;2024-02-26T07:23:41;20.10;;;8.80;;
74894;SDS011;63447;49.446;8.666;2024-02-26T07:26:06;38.55;;;18.70;;
74894;SDS011;63447;49.446;8.666;2024-02-26T07:28:36;28.58;;;12.07;;
74894;SDS011;63447;49.446;8.666;2024-02-26T07:31:02;8.18;;;3.28;;
74894;SDS011;63447;49.446;8.666;2024-02-26T07:33:30;3.80;;;1.10;;
74894;SDS011;63447;49.446;8.666;2024-02-26T07:35:58;2.42;;;0.70;;
74894;SDS011;63447;49.446;8.666;2024-02-26T07:38:23;2.83;;;0.90;;
74894;SDS011;63447;49.446;8.666;2024-02-26T07:40:49;4.90;;;1.40;;
74894;SDS011;63447;49.446;8.666;2024-02-26T07:43:16;3.03;;;0.80;;
74894;SDS011;63447;49.446;8.666;2024-02-26T07:45:42;3.50;;;1.00;;
74894;SDS011;63447;49.446;8.666;2024-02-26T07:48:09;2.38;;;0.70;;
74894;SDS011;63447;49.446;8.666;2024-02-26T07:50:37;2.63;;;0.60;;
74894;SDS011;63447;49.446;8.666;2024-02-26T07:53:02;2.15;;;0.60;;
74894;SDS011;63447;49.446;8.666;2024-02-26T07:55:29;2.10;;;0.60;;
74894;SDS011;63447;49.446;8.666;2024-02-26T07:57:58;3.47;;;1.00;;
74894;SDS011;63447;49.446;8.666;2024-02-26T08:00:23;2.00;;;0.60;;
74894;SDS011;63447;49.446;8.666;2024-02-26T08:02:51;1.92;;;0.50;;
74894;SDS011;63447;49.446;8.666;2024-02-26T08:05:19;2.30;;;0.60;;
74894;SDS011;63447;49.446;8.666;2024-02-26T08:07:47;1.95;;;0.60;;
74894;SDS011;63447;49.446;8.666;2024-02-26T08:10:12;2.45;;;0.80;;
74894;SDS011;63447;49.446;8.666;2024-02-26T08:12:38;2.58;;;0.70;;
74894;SDS011;63447;49.446;8.666;2024-02-26T08:15:05;1.80;;;0.50;;
74894;SDS011;63447;49.446;8.666;2024-02-26T08:17:31;2.88;;;0.60;;
74894;SDS011;63447;49.446;8.666;2024-02-26T08:19:58;2.22;;;0.60;;
74894;SDS011;63447;49.446;8.666;2024-02-26T08:22:25;2.35;;;0.70;;
74894;SDS011;63447;49.446;8.666;2024-02-26T08:24:50;2.50;;;0.52;;
74894;SDS011;63447;49.446;8.666;2024-02-26T08:27:16;2.33;;;0.60;;
74894;SDS011;63447;49.446;8.666;2024-02-26T08:29:41;2.77;;;0.90;;
74894;SDS011;63447;49.446;8.666;2024-02-26T08:32:09;2.38;;;0.60;;
74894;SDS011;63447;49.446;8.666;2024-02-26T08:34:34;2.93;;;0.97;;
74894;SDS011;63447;49.446;8.666;2024-02-26T08:36:59;2.70;;;0.70;;
74894;SDS011;63447;49.446;8.666;2024-02-26T08:39:25;2.53;;;0.90;;
74894;SDS011;63447;49.446;8.666;2024-02-26T08:41:53;2.75;;;0.73;;
74894;SDS011;63447;49.446;8.666;2024-02-26T08:44:19;2.85;;;0.82;;
74894;SDS011;63447;49.446;8.666;2024-02-26T08:46:44;2.85;;;1.00;;
74894;SDS011;63447;49.446;8.666;2024-02-26T08:49:10;2.83;;;0.80;;
74894;SDS011;63447;49.446;8.666;2024-02-26T08:51:40;2.42;;;0.70;;
74894;SDS011;63447;49.446;8.666;2024-02-26T08:54:09;2.35;;;0.65;;
74894;SDS011;63447;49.446;8.666;2024-02-26T08:56:35;2.20;;;0.70;;
74894;SDS011;63447;49.446;8.666;2024-02-26T08:59:00;2.50;;;0.82;;
74894;SDS011;63447;49.446;8.666;2024-02-26T09:01:28;2.40;;;0.70;;
74894;SDS011;63447;49.446;8.666;2024-02-26T09:03:57;1.80;;;0.60;;
74894;SDS011;63447;49.446;8.666;2024-02-26T09:06:25;2.55;;;0.60;;
74894;SDS011;63447;49.446;8.666;2024-02-26T09:08:57;2.05;;;0.50;;
74894;SDS011;63447;49.446;8.666;2024-02-26T09:11:22;1.98;;;0.60;;
74894;SDS011;63447;49.446;8.666;2024-02-26T09:13:48;2.78;;;0.65;;
74894;SDS011;63447;49.446;8.666;2024-02-26T09:16:13;4.13;;;0.70;;
74894;SDS011;63447;49.446;8.666;2024-02-26T09:18:38;2.42;;;0.70;;
74894;SDS011;63447;49.446;8.666;2024-02-26T09:21:06;1.83;;;0.60;;
74894;SDS011;63447;49.446;8.666;2024-02-26T09:23:31;2.42;;;0.73;;
74894;SDS011;63447;49.446;8.666;2024-02-26T09:25:57;2.13;;;0.63;;
74894;SDS011;63447;49.446;8.666;2024-02-26T09:28:23;2.13;;;0.65;;
74894;SDS011;63447;49.446;8.666;2024-02-26T09:30:51;2.90;;;0.60;;
74894;SDS011;63447;49.446;8.666;2024-02-26T09:33:16;2.28;;;0.60;;
74894;SDS011;63447;49.446;8.666;2024-02-26T09:35:44;2.63;;;0.60;;
74894;SDS011;63447;49.446;8.666;2024-02-26T09:38:09;2.67;;;0.70;;
74894;SDS011;63447;49.446;8.666;2024-02-26T09:40:34;3.40;;;1.30;;
74894;SDS011;63447;49.446;8.666;2024-02-26T09:43:02;6.75;;;2.80;;
74894;SDS011;63447;49.446;8.666;2024-02-26T09:45:32;7.70;;;3.25;;
74894;SDS011;63447;49.446;8.666;2024-02-26T09:48:01;6.20;;;2.38;;
74894;SDS011;63447;49.446;8.666;2024-02-26T09:50:29;6.25;;;2.60;;
74894;SDS011;63447;49.446;8.666;2024-02-26T09:52:54;4.82;;;1.48;;
74894;SDS011;63447;49.446;8.666;2024-02-26T09:55:24;9.43;;;4.07;;
74894;SDS011;63447;49.446;8.666;2024-02-26T09:57:50;9.80;;;4.57;;
74894;SDS011;63447;49.446;8.666;2024-02-26T10:00:20;13.50;;;6.68;;
74894;SDS011;63447;49.446;8.666;2024-02-26T10:02:47;9.00;;;4.40;;
74894;SDS011;63447;49.446;8.666;2024-02-26T10:05:16;5.57;;;2.35;;
74894;SDS011;63447;49.446;8.666;2024-02-26T10:07:45;7.57;;;3.80;;
74894;SDS011;63447;49.446;8.666;2024-02-26T10:10:13;7.32;;;3.30;;
74894;SDS011;63447;49.446;8.666;2024-02-26T10:12:43;5.75;;;2.90;;
74894;SDS011;63447;49.446;8.666;2024-02-26T10:15:08;4.72;;;2.22;;
74894;SDS011;63447;49.446;8.666;2024-02-26T10:17:34;4.57;;;1.60;;
74894;SDS011;63447;49.446;8.666;2024-02-26T10:20:18;3.65;;;0.98;;
74894;SDS011;63447;49.446;8.666;2024-02-26T10:22:46;2.20;;;0.65;;
74894;SDS011;63447;49.446;8.666;2024-02-26T10:25:14;1.85;;;0.50;;
74894;SDS011;63447;49.446;8.666;2024-02-26T10:27:42;2.47;;;0.70;;
74894;SDS011;63447;49.446;8.666;2024-02-26T10:32:46;1.92;;;0.47;;
74894;SDS011;63447;49.446;8.666;2024-02-26T10:35:12;2.03;;;0.60;;
74894;SDS011;63447;49.446;8.666;2024-02-26T10:37:39;2.80;;;0.70;;
74894;SDS011;63447;49.446;8.666;2024-02-26T10:40:13;1.75;;;0.40;;
74894;SDS011;63447;49.446;8.666;2024-02-26T10:42:40;2.38;;;0.60;;
74894;SDS011;63447;49.446;8.666;2024-02-26T10:45:06;2.10;;;0.50;;
74894;SDS011;63447;49.446;8.666;2024-02-26T10:47:36;3.40;;;0.70;;
74894;SDS011;63447;49.446;8.666;2024-02-26T10:50:07;2.08;;;0.50;;
74894;SDS011;63447;49.446;8.666;2024-02-26T10:52:34;2.72;;;0.52;;
74894;SDS011;63447;49.446;8.666;2024-02-26T10:55:04;1.25;;;0.40;;
74894;SDS011;63447;49.446;8.666;2024-02-26T10:57:34;1.50;;;0.50;;
74894;SDS011;63447;49.446;8.666;2024-02-26T11:00:04;1.88;;;0.40;;
74894;SDS011;63447;49.446;8.666;2024-02-26T11:02:32;1.83;;;0.50;;
74894;SDS011;63447;49.446;8.666;2024-02-26T11:05:02;2.47;;;0.52;;
74894;SDS011;63447;49.446;8.666;2024-02-26T11:07:31;1.90;;;0.50;;
74894;SDS011;63447;49.446;8.666;2024-02-26T11:10:01;1.67;;;0.40;;
74894;SDS011;63447;49.446;8.666;2024-02-26T11:12:29;1.38;;;0.30;;
74894;SDS011;63447;49.446;8.666;2024-02-26T11:15:00;1.92;;;0.50;;
74894;SDS011;63447;49.446;8.666;2024-02-26T11:17:27;3.03;;;0.70;;
74894;SDS011;63447;49.446;8.666;2024-02-26T11:19:57;1.73;;;0.50;;
74894;SDS011;63447;49.446;8.666;2024-02-26T11:22:24;2.15;;;0.57;;
74894;SDS011;63447;49.446;8.666;2024-02-26T11:24:54;1.60;;;0.40;;
74894;SDS011;63447;49.446;8.666;2024-02-26T11:27:23;2.50;;;0.45;;
74894;SDS011;63447;49.446;8.666;2024-02-26T11:29:51;2.83;;;0.50;;
74894;SDS011;63447;49.446;8.666;2024-02-26T11:32:18;3.83;;;0.98;;
74894;SDS011;63447;49.446;8.666;2024-02-26T11:34:44;2.55;;;0.70;;
74894;SDS011;63447;49.446;8.666;2024-02-26T11:37:10;1.58;;;0.40;;
74894;SDS011;63447;49.446;8.666;2024-02-26T11:39:41;2.17;;;0.57;;
74894;SDS011;63447;49.446;8.666;2024-02-26T11:42:07;1.98;;;0.40;;
74894;SDS011;63447;49.446;8.666;2024-02-26T11:44:34;2.05;;;0.43;;
74894;SDS011;63447;49.446;8.666;2024-02-26T11:49:36;1.73;;;0.40;;
74894;SDS011;63447;49.446;8.666;2024-02-26T11:52:07;2.28;;;0.60;;
74894;SDS011;63447;49.446;8.666;2024-02-26T12:02:45;1.20;;;0.30;;
74894;SDS011;63447;49.446;8.666;2024-02-26T12:07:42;1.42;;;0.38;;
74894;SDS011;63447;49.446;8.666;2024-02-26T12:15:43;1.00;;;0.30;;
74894;SDS011;63447;49.446;8.666;2024-02-26T12:18:10;2.20;;;0.40;;
74894;SDS011;63447;49.446;8.666;2024-02-26T12:20:40;1.65;;;0.30;;
74894;SDS011;63447;49.446;8.666;2024-02-26T12:23:06;1.00;;;0.30;;
74894;SDS011;63447;49.446;8.666;2024-02-26T12:25:31;2.33;;;0.45;;
74894;SDS011;63447;49.446;8.666;2024-02-26T12:27:58;1.15;;;0.35;;
74894;SDS011;63447;49.446;8.666;2024-02-26T12:30:26;1.92;;;0.43;;
74894;SDS011;63447;49.446;8.666;2024-02-26T12:32:54;1.75;;;0.30;;
74894;SDS011;63447;49.446;8.666;2024-02-26T12:35:22;1.95;;;0.30;;
74894;SDS011;63447;49.446;8.666;2024-02-26T12:37:52;1.00;;;0.25;;
74894;SDS011;63447;49.446;8.666;2024-02-26T12:40:18;1.05;;;0.28;;
74894;SDS011;63447;49.446;8.666;2024-02-26T12:42:44;1.50;;;0.32;;
74894;SDS011;63447;49.446;8.666;2024-02-26T12:45:13;2.55;;;0.50;;
74894;SDS011;63447;49.446;8.666;2024-02-26T12:47:42;2.30;;;0.57;;
74894;SDS011;63447;49.446;8.666;2024-02-26T12:50:08;1.77;;;0.40;;
74894;SDS011;63447;49.446;8.666;2024-02-26T12:52:41;1.55;;;0.30;;
74894;SDS011;63447;49.446;8.666;2024-02-26T12:55:08;1.48;;;0.38;;
74894;SDS011;63447;49.446;8.666;2024-02-26T12:57:39;1.33;;;0.35;;
74894;SDS011;63447;49.446;8.666;2024-02-26T13:00:08;2.08;;;0.50;;
74894;SDS011;63447;49.446;8.666;2024-02-26T13:02:36;2.75;;;0.40;;
74894;SDS011;63447;49.446;8.666;2024-02-26T13:05:03;1.13;;;0.30;;
74894;SDS011;63447;49.446;8.666;2024-02-26T13:07:33;1.13;;;0.30;;
74894;SDS011;63447;49.446;8.666;2024-02-26T13:09:59;1.65;;;0.40;;
74894;SDS011;63447;49.446;8.666;2024-02-26T13:12:25;1.60;;;0.30;;
74894;SDS011;63447;49.446;8.666;2024-02-26T13:15:03;1.27;;;0.30;;
74894;SDS011;63447;49.446;8.666;2024-02-26T13:17:31;1.15;;;0.30;;
74894;SDS011;63447;49.446;8.666;2024-02-26T13:19:57;0.77;;;0.30;;
74894;SDS011;63447;49.446;8.666;2024-02-26T13:22:25;1.52;;;0.30;;
74894;SDS011;63447;49.446;8.666;2024-02-26T13:24:56;1.08;;;0.25;;
74894;SDS011;63447;49.446;8.666;2024-02-26T13:27:23;1.35;;;0.20;;
74894;SDS011;63447;49.446;8.666;2024-02-26T13:30:01;1.40;;;0.30;;
74894;SDS011;63447;49.446;8.666;2024-02-26T13:32:40;0.52;;;0.20;;
74894;SDS011;63447;49.446;8.666;2024-02-26T13:35:09;1.02;;;0.30;;
74894;SDS011;63447;49.446;8.666;2024-02-26T13:37:38;1.13;;;0.22;;
74894;SDS011;63447;49.446;8.666;2024-02-26T13:40:04;0.63;;;0.20;;
74894;SDS011;63447;49.446;8.666;2024-02-26T13:42:33;1.80;;;0.30;;
74894;SDS011;63447;49.446;8.666;2024-02-26T13:44:59;1.25;;;0.28;;
74894;SDS011;63447;49.446;8.666;2024-02-26T13:47:25;0.95;;;0.22;;
74894;SDS011;63447;49.446;8.666;2024-02-26T13:49:50;0.82;;;0.20;;
74894;SDS011;63447;49.446;8.666;2024-02-26T13:52:15;1.40;;;0.30;;
74894;SDS011;63447;49.446;8.666;2024-02-26T13:54:41;1.15;;;0.38;;
74894;SDS011;63447;49.446;8.666;2024-02-26T13:57:07;1.40;;;0.30;;
74894;SDS011;63447;49.446;8.666;2024-02-26T13:59:34;1.85;;;0.40;;
74894;SDS011;63447;49.446;8.666;2024-02-26T14:02:00;1.77;;;0.40;;
74894;SDS011;63447;49.446;8.666;2024-02-26T14:04:25;0.90;;;0.22;;
74894;SDS011;63447;49.446;8.666;2024-02-26T14:06:50;1.17;;;0.27;;
74894;SDS011;63447;49.446;8.666;2024-02-26T14:09:16;1.05;;;0.25;;
74894;SDS011;63447;49.446;8.666;2024-02-26T14:11:44;1.20;;;0.40;;
74894;SDS011;63447;49.446;8.666;2024-02-26T14:14:10;1.52;;;0.40;;
74894;SDS011;63447;49.446;8.666;2024-02-26T14:16:36;1.17;;;0.20;;
74894;SDS011;63447;49.446;8.666;2024-02-26T14:19:01;1.45;;;0.40;;
74894;SDS011;63447;49.446;8.666;2024-02-26T14:21:27;2.20;;;0.40;;
74894;SDS011;63447;49.446;8.666;2024-02-26T14:23:54;1.98;;;0.40;;
74894;SDS011;63447;49.446;8.666;2024-02-26T14:26:20;2.97;;;0.70;;
74894;SDS011;63447;49.446;8.666;2024-02-26T14:28:46;2.55;;;0.80;;
74894;SDS011;63447;49.446;8.666;2024-02-26T14:31:16;1.88;;;0.55;;
74894;SDS011;63447;49.446;8.666;2024-02-26T14:33:42;2.13;;;0.50;;
74894;SDS011;63447;49.446;8.666;2024-02-26T14:36:08;2.17;;;0.57;;
74894;SDS011;63447;49.446;8.666;2024-02-26T14:38:33;1.73;;;0.50;;
74894;SDS011;63447;49.446;8.666;2024-02-26T14:40:59;2.55;;;0.50;;
74894;SDS011;63447;49.446;8.666;2024-02-26T14:43:25;2.42;;;0.50;;
74894;SDS011;63447;49.446;8.666;2024-02-26T14:45:50;1.45;;;0.40;;
74894;SDS011;63447;49.446;8.666;2024-02-26T14:48:18;1.95;;;0.50;;
74894;SDS011;63447;49.446;8.666;2024-02-26T14:50:43;2.28;;;0.55;;
74894;SDS011;63447;49.446;8.666;2024-02-26T14:53:08;2.43;;;0.60;;
74894;SDS011;63447;49.446;8.666;2024-02-26T14:55:36;1.90;;;0.50;;
74894;SDS011;63447;49.446;8.666;2024-02-26T14:58:02;2.38;;;0.43;;
74894;SDS011;63447;49.446;8.666;2024-02-26T15:00:29;2.13;;;0.60;;
74894;SDS011;63447;49.446;8.666;2024-02-26T15:02:58;1.40;;;0.43;;
74894;SDS011;63447;49.446;8.666;2024-02-26T15:05:24;1.75;;;0.32;;
74894;SDS011;63447;49.446;8.666;2024-02-26T15:07:52;1.77;;;0.40;;